sensor_id;sensor_type;location;lat;lon;timestamp;P1;durP1;ratioP1;P2;durP2;ratioP2
62707;SDS011;48769;51.624;5.886;2023-01-23T00:01:57;61.72;;;29.92;;
62707;SDS011;48769;51.624;5.886;2023-01-23T00:04:22;62.42;;;31.92;;
62707;SDS011;48769;51.624;5.886;2023-01-23T00:06:47;55.78;;;30.40;;
62707;SDS011;48769;51.624;5.886;2023-01-23T00:09:14;62.08;;;30.38;;
62707;SDS011;48769;51.624;5.886;2023-01-23T00:11:40;58.20;;;30.58;;
62707;SDS011;48769;51.624;5.886;2023-01-23T00:14:05;60.05;;;30.48;;
62707;SDS011;48769;51.624;5.886;2023-01-23T00:16:31;57.97;;;30.70;;
62707;SDS011;48769;51.624;5.886;2023-01-23T00:18:57;61.97;;;31.45;;
62707;SDS011;48769;51.624;5.886;2023-01-23T00:21:23;58.50;;;30.48;;
62707;SDS011;48769;51.624;5.886;2023-01-23T00:23:52;57.55;;;29.90;;
62707;SDS011;48769;51.624;5.886;2023-01-23T00:26:20;63.95;;;33.13;;
62707;SDS011;48769;51.624;5.886;2023-01-23T00:28:51;61.97;;;32.05;;
62707;SDS011;48769;51.624;5.886;2023-01-23T00:31:18;58.85;;;31.77;;
62707;SDS011;48769;51.624;5.886;2023-01-23T00:33:51;55.45;;;31.42;;
62707;SDS011;48769;51.624;5.886;2023-01-23T00:36:18;68.65;;;31.05;;
62707;SDS011;48769;51.624;5.886;2023-01-23T00:38:44;64.13;;;31.05;;
62707;SDS011;48769;51.624;5.886;2023-01-23T00:41:09;65.90;;;30.23;;
62707;SDS011;48769;51.624;5.886;2023-01-23T00:43:34;63.75;;;32.65;;
62707;SDS011;48769;51.624;5.886;2023-01-23T00:46:00;57.65;;;29.98;;
62707;SDS011;48769;51.624;5.886;2023-01-23T00:48:25;63.08;;;31.80;;
62707;SDS011;48769;51.624;5.886;2023-01-23T00:50:51;58.70;;;31.73;;
62707;SDS011;48769;51.624;5.886;2023-01-23T00:53:17;58.25;;;31.52;;
62707;SDS011;48769;51.624;5.886;2023-01-23T00:55:42;62.22;;;31.77;;
62707;SDS011;48769;51.624;5.886;2023-01-23T00:58:08;69.28;;;33.65;;
62707;SDS011;48769;51.624;5.886;2023-01-23T01:00:33;59.42;;;30.95;;
62707;SDS011;48769;51.624;5.886;2023-01-23T01:03:02;60.30;;;31.35;;
62707;SDS011;48769;51.624;5.886;2023-01-23T01:05:28;60.53;;;31.38;;
62707;SDS011;48769;51.624;5.886;2023-01-23T01:07:53;61.65;;;30.75;;
62707;SDS011;48769;51.624;5.886;2023-01-23T01:10:19;62.17;;;32.58;;
62707;SDS011;48769;51.624;5.886;2023-01-23T01:12:44;61.40;;;31.38;;
62707;SDS011;48769;51.624;5.886;2023-01-23T01:15:11;60.70;;;30.95;;
62707;SDS011;48769;51.624;5.886;2023-01-23T01:17:37;57.75;;;28.55;;
62707;SDS011;48769;51.624;5.886;2023-01-23T01:20:03;57.60;;;30.17;;
62707;SDS011;48769;51.624;5.886;2023-01-23T01:22:29;57.88;;;30.90;;
62707;SDS011;48769;51.624;5.886;2023-01-23T01:24:55;55.08;;;29.80;;
62707;SDS011;48769;51.624;5.886;2023-01-23T01:27:21;58.95;;;29.20;;
62707;SDS011;48769;51.624;5.886;2023-01-23T01:29:47;57.67;;;30.33;;
62707;SDS011;48769;51.624;5.886;2023-01-23T01:32:12;62.08;;;31.38;;
62707;SDS011;48769;51.624;5.886;2023-01-23T01:34:37;74.38;;;30.73;;
62707;SDS011;48769;51.624;5.886;2023-01-23T01:37:03;68.00;;;30.25;;
62707;SDS011;48769;51.624;5.886;2023-01-23T01:39:28;66.03;;;30.30;;
62707;SDS011;48769;51.624;5.886;2023-01-23T01:41:53;64.30;;;29.38;;
62707;SDS011;48769;51.624;5.886;2023-01-23T01:44:20;63.78;;;29.02;;
62707;SDS011;48769;51.624;5.886;2023-01-23T01:46:47;67.10;;;31.60;;
62707;SDS011;48769;51.624;5.886;2023-01-23T01:51:43;59.58;;;29.30;;
62707;SDS011;48769;51.624;5.886;2023-01-23T01:54:24;61.25;;;29.75;;
62707;SDS011;48769;51.624;5.886;2023-01-23T01:59:25;59.30;;;28.75;;
62707;SDS011;48769;51.624;5.886;2023-01-23T02:01:55;61.72;;;29.73;;
62707;SDS011;48769;51.624;5.886;2023-01-23T02:04:29;59.15;;;31.25;;
62707;SDS011;48769;51.624;5.886;2023-01-23T02:07:01;58.40;;;29.05;;
62707;SDS011;48769;51.624;5.886;2023-01-23T02:09:29;59.15;;;29.67;;
62707;SDS011;48769;51.624;5.886;2023-01-23T02:11:57;64.72;;;29.08;;
62707;SDS011;48769;51.624;5.886;2023-01-23T02:14:24;63.53;;;30.10;;
62707;SDS011;48769;51.624;5.886;2023-01-23T02:16:49;67.68;;;32.08;;
62707;SDS011;48769;51.624;5.886;2023-01-23T02:22:12;67.55;;;30.88;;
62707;SDS011;48769;51.624;5.886;2023-01-23T02:25:07;66.50;;;29.73;;
62707;SDS011;48769;51.624;5.886;2023-01-23T02:27:40;62.42;;;29.00;;
62707;SDS011;48769;51.624;5.886;2023-01-23T02:30:05;60.92;;;29.67;;
62707;SDS011;48769;51.624;5.886;2023-01-23T02:32:32;64.68;;;31.40;;
62707;SDS011;48769;51.624;5.886;2023-01-23T02:34:59;64.60;;;31.67;;
62707;SDS011;48769;51.624;5.886;2023-01-23T02:37:32;67.75;;;33.00;;
62707;SDS011;48769;51.624;5.886;2023-01-23T02:39:59;70.63;;;30.88;;
62707;SDS011;48769;51.624;5.886;2023-01-23T02:42:27;67.63;;;31.30;;
62707;SDS011;48769;51.624;5.886;2023-01-23T02:44:54;72.53;;;31.25;;
62707;SDS011;48769;51.624;5.886;2023-01-23T02:47:20;73.97;;;34.28;;
62707;SDS011;48769;51.624;5.886;2023-01-23T02:49:47;74.10;;;29.95;;
62707;SDS011;48769;51.624;5.886;2023-01-23T02:52:12;64.90;;;31.65;;
62707;SDS011;48769;51.624;5.886;2023-01-23T02:54:37;72.90;;;33.35;;
62707;SDS011;48769;51.624;5.886;2023-01-23T02:57:04;68.30;;;34.22;;
62707;SDS011;48769;51.624;5.886;2023-01-23T02:59:30;64.90;;;30.23;;
62707;SDS011;48769;51.624;5.886;2023-01-23T03:02:14;69.47;;;33.08;;
62707;SDS011;48769;51.624;5.886;2023-01-23T03:04:39;76.88;;;31.60;;
62707;SDS011;48769;51.624;5.886;2023-01-23T03:07:05;76.03;;;32.28;;
62707;SDS011;48769;51.624;5.886;2023-01-23T03:09:31;66.97;;;31.83;;
62707;SDS011;48769;51.624;5.886;2023-01-23T03:11:57;70.15;;;31.95;;
62707;SDS011;48769;51.624;5.886;2023-01-23T03:14:22;73.22;;;32.72;;
62707;SDS011;48769;51.624;5.886;2023-01-23T03:16:48;71.10;;;33.55;;
62707;SDS011;48769;51.624;5.886;2023-01-23T03:19:15;73.25;;;31.35;;
62707;SDS011;48769;51.624;5.886;2023-01-23T03:21:42;65.53;;;33.00;;
62707;SDS011;48769;51.624;5.886;2023-01-23T03:24:08;68.30;;;32.63;;
62707;SDS011;48769;51.624;5.886;2023-01-23T03:26:39;74.47;;;34.05;;
62707;SDS011;48769;51.624;5.886;2023-01-23T03:29:05;71.47;;;31.77;;
62707;SDS011;48769;51.624;5.886;2023-01-23T03:31:50;78.35;;;31.80;;
62707;SDS011;48769;51.624;5.886;2023-01-23T03:34:16;73.03;;;31.65;;
62707;SDS011;48769;51.624;5.886;2023-01-23T03:36:46;64.32;;;30.02;;
62707;SDS011;48769;51.624;5.886;2023-01-23T03:39:11;67.68;;;33.40;;
62707;SDS011;48769;51.624;5.886;2023-01-23T03:41:55;69.35;;;32.20;;
62707;SDS011;48769;51.624;5.886;2023-01-23T03:44:20;71.22;;;33.88;;
62707;SDS011;48769;51.624;5.886;2023-01-23T03:46:47;68.70;;;33.95;;
62707;SDS011;48769;51.624;5.886;2023-01-23T03:49:13;83.15;;;33.50;;
62707;SDS011;48769;51.624;5.886;2023-01-23T03:51:39;73.22;;;32.03;;
62707;SDS011;48769;51.624;5.886;2023-01-23T03:54:04;78.68;;;35.67;;
62707;SDS011;48769;51.624;5.886;2023-01-23T03:56:30;76.93;;;34.10;;
62707;SDS011;48769;51.624;5.886;2023-01-23T03:58:55;81.95;;;33.78;;
62707;SDS011;48769;51.624;5.886;2023-01-23T04:01:21;72.22;;;35.35;;
62707;SDS011;48769;51.624;5.886;2023-01-23T04:03:48;77.63;;;32.92;;
62707;SDS011;48769;51.624;5.886;2023-01-23T04:06:14;76.25;;;33.17;;
62707;SDS011;48769;51.624;5.886;2023-01-23T04:08:39;87.47;;;34.92;;
62707;SDS011;48769;51.624;5.886;2023-01-23T04:11:05;80.00;;;34.42;;
62707;SDS011;48769;51.624;5.886;2023-01-23T04:13:32;80.20;;;34.15;;
62707;SDS011;48769;51.624;5.886;2023-01-23T04:15:57;78.90;;;36.25;;
62707;SDS011;48769;51.624;5.886;2023-01-23T04:18:23;72.95;;;33.42;;
62707;SDS011;48769;51.624;5.886;2023-01-23T04:20:49;86.68;;;33.70;;
62707;SDS011;48769;51.624;5.886;2023-01-23T04:23:14;80.15;;;34.47;;
62707;SDS011;48769;51.624;5.886;2023-01-23T04:25:40;80.50;;;34.67;;
62707;SDS011;48769;51.624;5.886;2023-01-23T04:28:05;80.57;;;34.70;;
62707;SDS011;48769;51.624;5.886;2023-01-23T04:30:31;73.40;;;33.88;;
62707;SDS011;48769;51.624;5.886;2023-01-23T04:32:56;77.30;;;34.45;;
62707;SDS011;48769;51.624;5.886;2023-01-23T04:35:21;77.72;;;32.90;;
62707;SDS011;48769;51.624;5.886;2023-01-23T04:37:47;82.07;;;35.13;;
62707;SDS011;48769;51.624;5.886;2023-01-23T04:40:12;76.70;;;32.83;;
62707;SDS011;48769;51.624;5.886;2023-01-23T04:42:38;71.25;;;32.53;;
62707;SDS011;48769;51.624;5.886;2023-01-23T04:45:03;71.47;;;32.78;;
62707;SDS011;48769;51.624;5.886;2023-01-23T04:47:29;81.10;;;34.70;;
62707;SDS011;48769;51.624;5.886;2023-01-23T04:49:54;75.60;;;33.60;;
62707;SDS011;48769;51.624;5.886;2023-01-23T04:52:19;83.35;;;33.92;;
62707;SDS011;48769;51.624;5.886;2023-01-23T04:54:44;78.90;;;32.10;;
62707;SDS011;48769;51.624;5.886;2023-01-23T04:57:10;84.68;;;35.10;;
62707;SDS011;48769;51.624;5.886;2023-01-23T04:59:35;83.20;;;34.35;;
62707;SDS011;48769;51.624;5.886;2023-01-23T05:02:00;81.88;;;32.72;;
62707;SDS011;48769;51.624;5.886;2023-01-23T05:04:26;72.95;;;35.08;;
62707;SDS011;48769;51.624;5.886;2023-01-23T05:06:52;80.30;;;33.13;;
62707;SDS011;48769;51.624;5.886;2023-01-23T05:09:17;68.40;;;31.73;;
62707;SDS011;48769;51.624;5.886;2023-01-23T05:11:42;73.85;;;32.47;;
62707;SDS011;48769;51.624;5.886;2023-01-23T05:14:08;78.28;;;34.45;;
62707;SDS011;48769;51.624;5.886;2023-01-23T05:16:33;64.68;;;30.92;;
62707;SDS011;48769;51.624;5.886;2023-01-23T05:18:58;76.75;;;34.72;;
62707;SDS011;48769;51.624;5.886;2023-01-23T05:21:24;73.53;;;33.97;;
62707;SDS011;48769;51.624;5.886;2023-01-23T05:23:49;71.10;;;33.70;;
62707;SDS011;48769;51.624;5.886;2023-01-23T05:26:14;77.75;;;34.35;;
62707;SDS011;48769;51.624;5.886;2023-01-23T05:28:39;71.45;;;30.52;;
62707;SDS011;48769;51.624;5.886;2023-01-23T05:31:05;74.72;;;32.50;;
62707;SDS011;48769;51.624;5.886;2023-01-23T05:33:30;70.75;;;33.30;;
62707;SDS011;48769;51.624;5.886;2023-01-23T05:35:59;73.68;;;33.42;;
62707;SDS011;48769;51.624;5.886;2023-01-23T05:38:24;72.97;;;32.45;;
62707;SDS011;48769;51.624;5.886;2023-01-23T05:40:50;72.63;;;32.10;;
62707;SDS011;48769;51.624;5.886;2023-01-23T05:43:15;69.75;;;32.95;;
62707;SDS011;48769;51.624;5.886;2023-01-23T05:45:41;70.00;;;33.30;;
62707;SDS011;48769;51.624;5.886;2023-01-23T05:48:06;64.32;;;30.95;;
62707;SDS011;48769;51.624;5.886;2023-01-23T05:50:31;64.40;;;31.70;;
62707;SDS011;48769;51.624;5.886;2023-01-23T05:52:57;69.85;;;33.47;;
62707;SDS011;48769;51.624;5.886;2023-01-23T05:55:22;68.43;;;32.58;;
62707;SDS011;48769;51.624;5.886;2023-01-23T05:57:47;68.07;;;33.35;;
62707;SDS011;48769;51.624;5.886;2023-01-23T06:00:13;75.93;;;31.63;;
62707;SDS011;48769;51.624;5.886;2023-01-23T06:02:39;70.07;;;33.63;;
62707;SDS011;48769;51.624;5.886;2023-01-23T06:05:05;69.00;;;33.10;;
62707;SDS011;48769;51.624;5.886;2023-01-23T06:07:30;67.88;;;31.02;;
62707;SDS011;48769;51.624;5.886;2023-01-23T06:09:55;69.85;;;32.30;;
62707;SDS011;48769;51.624;5.886;2023-01-23T06:12:21;68.43;;;33.08;;
62707;SDS011;48769;51.624;5.886;2023-01-23T06:14:46;65.68;;;32.40;;
62707;SDS011;48769;51.624;5.886;2023-01-23T06:17:12;72.10;;;32.80;;
62707;SDS011;48769;51.624;5.886;2023-01-23T06:19:38;63.75;;;30.90;;
62707;SDS011;48769;51.624;5.886;2023-01-23T06:22:03;64.68;;;31.48;;
62707;SDS011;48769;51.624;5.886;2023-01-23T06:24:29;59.25;;;31.20;;
62707;SDS011;48769;51.624;5.886;2023-01-23T06:26:54;66.85;;;31.67;;
62707;SDS011;48769;51.624;5.886;2023-01-23T06:29:19;67.05;;;32.55;;
62707;SDS011;48769;51.624;5.886;2023-01-23T06:31:45;64.57;;;32.88;;
62707;SDS011;48769;51.624;5.886;2023-01-23T06:34:11;60.92;;;31.02;;
62707;SDS011;48769;51.624;5.886;2023-01-23T06:36:37;67.45;;;32.88;;
62707;SDS011;48769;51.624;5.886;2023-01-23T06:39:04;64.43;;;30.92;;
62707;SDS011;48769;51.624;5.886;2023-01-23T06:41:30;70.70;;;33.72;;
62707;SDS011;48769;51.624;5.886;2023-01-23T06:43:56;68.38;;;31.65;;
62707;SDS011;48769;51.624;5.886;2023-01-23T06:46:21;73.55;;;35.10;;
62707;SDS011;48769;51.624;5.886;2023-01-23T06:48:47;67.93;;;31.92;;
62707;SDS011;48769;51.624;5.886;2023-01-23T06:51:12;70.15;;;33.70;;
62707;SDS011;48769;51.624;5.886;2023-01-23T06:53:38;75.25;;;32.85;;
62707;SDS011;48769;51.624;5.886;2023-01-23T06:56:04;64.28;;;31.83;;
62707;SDS011;48769;51.624;5.886;2023-01-23T06:58:31;67.28;;;31.65;;
62707;SDS011;48769;51.624;5.886;2023-01-23T07:00:57;66.57;;;31.65;;
62707;SDS011;48769;51.624;5.886;2023-01-23T07:03:22;69.13;;;33.00;;
62707;SDS011;48769;51.624;5.886;2023-01-23T07:05:49;62.10;;;31.63;;
62707;SDS011;48769;51.624;5.886;2023-01-23T07:08:14;73.03;;;33.00;;
62707;SDS011;48769;51.624;5.886;2023-01-23T07:10:40;57.03;;;29.40;;
62707;SDS011;48769;51.624;5.886;2023-01-23T07:13:07;59.75;;;32.00;;
62707;SDS011;48769;51.624;5.886;2023-01-23T07:15:33;64.65;;;31.77;;
62707;SDS011;48769;51.624;5.886;2023-01-23T07:17:59;57.63;;;30.05;;
62707;SDS011;48769;51.624;5.886;2023-01-23T07:20:25;59.17;;;30.05;;
62707;SDS011;48769;51.624;5.886;2023-01-23T07:22:52;68.68;;;31.95;;
62707;SDS011;48769;51.624;5.886;2023-01-23T07:25:20;63.90;;;30.95;;
62707;SDS011;48769;51.624;5.886;2023-01-23T07:27:47;68.20;;;31.60;;
62707;SDS011;48769;51.624;5.886;2023-01-23T07:30:12;64.60;;;32.30;;
62707;SDS011;48769;51.624;5.886;2023-01-23T07:32:38;59.97;;;30.25;;
62707;SDS011;48769;51.624;5.886;2023-01-23T07:35:03;61.47;;;30.20;;
62707;SDS011;48769;51.624;5.886;2023-01-23T07:37:29;61.78;;;31.50;;
62707;SDS011;48769;51.624;5.886;2023-01-23T07:39:55;52.85;;;28.73;;
62707;SDS011;48769;51.624;5.886;2023-01-23T07:42:20;57.75;;;29.23;;
62707;SDS011;48769;51.624;5.886;2023-01-23T07:44:45;60.03;;;30.80;;
62707;SDS011;48769;51.624;5.886;2023-01-23T07:47:11;62.83;;;29.52;;
62707;SDS011;48769;51.624;5.886;2023-01-23T07:49:36;59.10;;;29.02;;
62707;SDS011;48769;51.624;5.886;2023-01-23T07:52:01;51.75;;;28.63;;
62707;SDS011;48769;51.624;5.886;2023-01-23T07:54:28;54.85;;;28.08;;
62707;SDS011;48769;51.624;5.886;2023-01-23T07:56:53;59.88;;;28.63;;
62707;SDS011;48769;51.624;5.886;2023-01-23T07:59:19;59.55;;;28.88;;
62707;SDS011;48769;51.624;5.886;2023-01-23T08:01:44;50.35;;;27.70;;
62707;SDS011;48769;51.624;5.886;2023-01-23T08:04:09;55.47;;;28.50;;
62707;SDS011;48769;51.624;5.886;2023-01-23T08:06:35;48.70;;;26.42;;
62707;SDS011;48769;51.624;5.886;2023-01-23T08:09:00;46.20;;;25.23;;
62707;SDS011;48769;51.624;5.886;2023-01-23T08:11:26;48.95;;;26.50;;
62707;SDS011;48769;51.624;5.886;2023-01-23T08:13:51;53.40;;;27.77;;
62707;SDS011;48769;51.624;5.886;2023-01-23T08:16:17;50.13;;;26.98;;
62707;SDS011;48769;51.624;5.886;2023-01-23T08:18:42;50.08;;;25.60;;
62707;SDS011;48769;51.624;5.886;2023-01-23T08:21:08;52.10;;;27.60;;
62707;SDS011;48769;51.624;5.886;2023-01-23T08:23:33;47.00;;;27.13;;
62707;SDS011;48769;51.624;5.886;2023-01-23T08:26:01;49.97;;;26.77;;
62707;SDS011;48769;51.624;5.886;2023-01-23T08:28:29;45.42;;;24.02;;
62707;SDS011;48769;51.624;5.886;2023-01-23T08:30:54;48.40;;;27.65;;
62707;SDS011;48769;51.624;5.886;2023-01-23T08:33:24;48.28;;;27.30;;
62707;SDS011;48769;51.624;5.886;2023-01-23T08:35:51;52.15;;;26.30;;
62707;SDS011;48769;51.624;5.886;2023-01-23T08:38:21;47.38;;;27.67;;
62707;SDS011;48769;51.624;5.886;2023-01-23T08:40:47;52.08;;;26.58;;
62707;SDS011;48769;51.624;5.886;2023-01-23T08:43:14;50.80;;;27.48;;
62707;SDS011;48769;51.624;5.886;2023-01-23T08:45:40;47.15;;;26.65;;
62707;SDS011;48769;51.624;5.886;2023-01-23T08:48:09;49.53;;;27.10;;
62707;SDS011;48769;51.624;5.886;2023-01-23T08:50:35;44.20;;;26.15;;
62707;SDS011;48769;51.624;5.886;2023-01-23T08:53:00;49.33;;;26.75;;
62707;SDS011;48769;51.624;5.886;2023-01-23T08:55:25;53.10;;;26.98;;
62707;SDS011;48769;51.624;5.886;2023-01-23T08:57:52;46.47;;;27.23;;
62707;SDS011;48769;51.624;5.886;2023-01-23T09:00:18;48.03;;;25.55;;
62707;SDS011;48769;51.624;5.886;2023-01-23T09:02:44;47.10;;;25.38;;
62707;SDS011;48769;51.624;5.886;2023-01-23T09:05:09;53.88;;;26.20;;
62707;SDS011;48769;51.624;5.886;2023-01-23T09:07:35;47.05;;;26.00;;
62707;SDS011;48769;51.624;5.886;2023-01-23T09:10:02;46.25;;;25.02;;
62707;SDS011;48769;51.624;5.886;2023-01-23T09:12:29;48.47;;;25.63;;
62707;SDS011;48769;51.624;5.886;2023-01-23T09:14:56;45.22;;;26.15;;
62707;SDS011;48769;51.624;5.886;2023-01-23T09:17:25;46.13;;;25.98;;
62707;SDS011;48769;51.624;5.886;2023-01-23T09:19:51;47.30;;;25.40;;
62707;SDS011;48769;51.624;5.886;2023-01-23T09:22:17;46.30;;;25.17;;
62707;SDS011;48769;51.624;5.886;2023-01-23T09:24:42;44.95;;;23.73;;
62707;SDS011;48769;51.624;5.886;2023-01-23T09:27:07;44.22;;;25.90;;
62707;SDS011;48769;51.624;5.886;2023-01-23T09:29:33;42.60;;;24.58;;
62707;SDS011;48769;51.624;5.886;2023-01-23T09:31:59;50.90;;;25.02;;
62707;SDS011;48769;51.624;5.886;2023-01-23T09:34:24;43.47;;;24.00;;
62707;SDS011;48769;51.624;5.886;2023-01-23T09:36:50;44.25;;;24.02;;
62707;SDS011;48769;51.624;5.886;2023-01-23T09:39:16;43.95;;;23.65;;
62707;SDS011;48769;51.624;5.886;2023-01-23T09:41:42;43.92;;;24.02;;
62707;SDS011;48769;51.624;5.886;2023-01-23T09:44:10;43.50;;;24.15;;
62707;SDS011;48769;51.624;5.886;2023-01-23T09:51:59;52.75;;;24.98;;
62707;SDS011;48769;51.624;5.886;2023-01-23T09:57:25;43.00;;;24.10;;
62707;SDS011;48769;51.624;5.886;2023-01-23T10:00:05;41.38;;;21.50;;
62707;SDS011;48769;51.624;5.886;2023-01-23T10:02:31;44.20;;;24.63;;
62707;SDS011;48769;51.624;5.886;2023-01-23T10:04:57;48.05;;;25.10;;
62707;SDS011;48769;51.624;5.886;2023-01-23T10:18:34;41.10;;;22.50;;
62707;SDS011;48769;51.624;5.886;2023-01-23T10:26:29;41.60;;;24.40;;
62707;SDS011;48769;51.624;5.886;2023-01-23T10:29:10;43.58;;;23.48;;
62707;SDS011;48769;51.624;5.886;2023-01-23T10:31:51;36.35;;;21.23;;
62707;SDS011;48769;51.624;5.886;2023-01-23T10:34:24;38.70;;;24.13;;
62707;SDS011;48769;51.624;5.886;2023-01-23T10:40:04;37.50;;;22.52;;
62707;SDS011;48769;51.624;5.886;2023-01-23T10:42:37;40.00;;;22.02;;
62707;SDS011;48769;51.624;5.886;2023-01-23T10:45:03;35.33;;;21.70;;
62707;SDS011;48769;51.624;5.886;2023-01-23T10:47:43;38.90;;;23.90;;
62707;SDS011;48769;51.624;5.886;2023-01-23T10:50:11;39.63;;;23.80;;
62707;SDS011;48769;51.624;5.886;2023-01-23T10:52:38;35.60;;;21.40;;
62707;SDS011;48769;51.624;5.886;2023-01-23T10:55:04;37.95;;;22.58;;
62707;SDS011;48769;51.624;5.886;2023-01-23T10:57:51;35.97;;;22.15;;
62707;SDS011;48769;51.624;5.886;2023-01-23T11:00:20;37.15;;;20.40;;
62707;SDS011;48769;51.624;5.886;2023-01-23T11:02:46;36.78;;;22.75;;
62707;SDS011;48769;51.624;5.886;2023-01-23T11:08:00;38.88;;;21.27;;
62707;SDS011;48769;51.624;5.886;2023-01-23T11:10:25;36.63;;;19.75;;
62707;SDS011;48769;51.624;5.886;2023-01-23T11:12:52;33.75;;;21.08;;
62707;SDS011;48769;51.624;5.886;2023-01-23T11:15:20;35.60;;;21.70;;
62707;SDS011;48769;51.624;5.886;2023-01-23T11:17:48;31.08;;;20.13;;
62707;SDS011;48769;51.624;5.886;2023-01-23T11:20:22;36.28;;;21.27;;
62707;SDS011;48769;51.624;5.886;2023-01-23T11:23:03;35.33;;;20.00;;
62707;SDS011;48769;51.624;5.886;2023-01-23T11:28:23;32.28;;;20.52;;
62707;SDS011;48769;51.624;5.886;2023-01-23T11:33:32;31.25;;;18.42;;
62707;SDS011;48769;51.624;5.886;2023-01-23T11:36:06;35.17;;;21.60;;
62707;SDS011;48769;51.624;5.886;2023-01-23T11:41:40;36.45;;;19.90;;
62707;SDS011;48769;51.624;5.886;2023-01-23T11:44:12;36.80;;;20.95;;
62707;SDS011;48769;51.624;5.886;2023-01-23T11:49:31;34.65;;;19.42;;
62707;SDS011;48769;51.624;5.886;2023-01-23T12:01:19;32.80;;;20.13;;
62707;SDS011;48769;51.624;5.886;2023-01-23T12:06:48;36.40;;;21.55;;
62707;SDS011;48769;51.624;5.886;2023-01-23T12:09:16;33.95;;;21.08;;
62707;SDS011;48769;51.624;5.886;2023-01-23T12:11:51;33.78;;;20.95;;
62707;SDS011;48769;51.624;5.886;2023-01-23T12:22:46;33.50;;;20.35;;
62707;SDS011;48769;51.624;5.886;2023-01-23T12:25:33;30.88;;;19.17;;
62707;SDS011;48769;51.624;5.886;2023-01-23T12:41:32;30.95;;;19.70;;
62707;SDS011;48769;51.624;5.886;2023-01-23T12:44:20;33.33;;;21.05;;
62707;SDS011;48769;51.624;5.886;2023-01-23T12:46:56;33.33;;;20.70;;
62707;SDS011;48769;51.624;5.886;2023-01-23T12:51:59;32.75;;;20.27;;
62707;SDS011;48769;51.624;5.886;2023-01-23T12:54:41;35.55;;;20.15;;
62707;SDS011;48769;51.624;5.886;2023-01-23T12:57:10;31.45;;;20.70;;
62707;SDS011;48769;51.624;5.886;2023-01-23T13:02:35;36.25;;;20.35;;
62707;SDS011;48769;51.624;5.886;2023-01-23T13:05:18;35.65;;;20.75;;
62707;SDS011;48769;51.624;5.886;2023-01-23T13:10:43;31.25;;;20.70;;
62707;SDS011;48769;51.624;5.886;2023-01-23T13:13:31;33.50;;;21.05;;
62707;SDS011;48769;51.624;5.886;2023-01-23T13:16:31;30.05;;;20.73;;
62707;SDS011;48769;51.624;5.886;2023-01-23T13:18:56;32.13;;;21.25;;
62707;SDS011;48769;51.624;5.886;2023-01-23T13:27:37;31.55;;;18.42;;
62707;SDS011;48769;51.624;5.886;2023-01-23T13:32:47;33.72;;;21.20;;
62707;SDS011;48769;51.624;5.886;2023-01-23T13:38:25;35.17;;;20.77;;
62707;SDS011;48769;51.624;5.886;2023-01-23T13:46:47;36.67;;;21.98;;
62707;SDS011;48769;51.624;5.886;2023-01-23T13:52:14;35.40;;;22.20;;
62707;SDS011;48769;51.624;5.886;2023-01-23T13:55:01;31.02;;;21.17;;
62707;SDS011;48769;51.624;5.886;2023-01-23T13:57:56;32.05;;;19.25;;
62707;SDS011;48769;51.624;5.886;2023-01-23T14:00:22;34.95;;;20.92;;
62707;SDS011;48769;51.624;5.886;2023-01-23T14:02:58;32.60;;;20.88;;
62707;SDS011;48769;51.624;5.886;2023-01-23T14:06:08;32.65;;;20.23;;
62707;SDS011;48769;51.624;5.886;2023-01-23T14:08:44;30.77;;;18.98;;
62707;SDS011;48769;51.624;5.886;2023-01-23T14:11:15;33.92;;;20.58;;
62707;SDS011;48769;51.624;5.886;2023-01-23T14:13:45;29.95;;;19.10;;
62707;SDS011;48769;51.624;5.886;2023-01-23T14:16:15;35.03;;;21.15;;
62707;SDS011;48769;51.624;5.886;2023-01-23T14:18:52;32.10;;;20.98;;
62707;SDS011;48769;51.624;5.886;2023-01-23T14:21:29;32.65;;;20.35;;
62707;SDS011;48769;51.624;5.886;2023-01-23T14:23:58;34.22;;;20.45;;
62707;SDS011;48769;51.624;5.886;2023-01-23T14:26:34;34.80;;;21.27;;
62707;SDS011;48769;51.624;5.886;2023-01-23T14:29:04;31.05;;;21.23;;
62707;SDS011;48769;51.624;5.886;2023-01-23T14:31:43;30.58;;;18.17;;
62707;SDS011;48769;51.624;5.886;2023-01-23T14:34:22;31.80;;;18.75;;
62707;SDS011;48769;51.624;5.886;2023-01-23T14:39:22;31.23;;;21.23;;
62707;SDS011;48769;51.624;5.886;2023-01-23T14:41:50;35.92;;;20.85;;
62707;SDS011;48769;51.624;5.886;2023-01-23T14:44:20;34.97;;;21.25;;
62707;SDS011;48769;51.624;5.886;2023-01-23T14:46:52;35.28;;;21.80;;
62707;SDS011;48769;51.624;5.886;2023-01-23T14:49:26;34.10;;;21.77;;
62707;SDS011;48769;51.624;5.886;2023-01-23T14:51:55;34.40;;;21.70;;
62707;SDS011;48769;51.624;5.886;2023-01-23T14:54:24;32.90;;;20.95;;
62707;SDS011;48769;51.624;5.886;2023-01-23T14:56:50;34.70;;;22.15;;
62707;SDS011;48769;51.624;5.886;2023-01-23T14:59:18;33.22;;;22.00;;
62707;SDS011;48769;51.624;5.886;2023-01-23T15:01:53;36.28;;;22.08;;
62707;SDS011;48769;51.624;5.886;2023-01-23T15:04:24;35.60;;;21.95;;
62707;SDS011;48769;51.624;5.886;2023-01-23T15:06:52;25.92;;;17.38;;
62707;SDS011;48769;51.624;5.886;2023-01-23T15:09:24;25.50;;;17.30;;
62707;SDS011;48769;51.624;5.886;2023-01-23T15:11:54;30.13;;;19.50;;
62707;SDS011;48769;51.624;5.886;2023-01-23T15:14:25;34.15;;;20.38;;
62707;SDS011;48769;51.624;5.886;2023-01-23T15:17:00;31.55;;;20.05;;
62707;SDS011;48769;51.624;5.886;2023-01-23T15:19:27;30.17;;;20.27;;
62707;SDS011;48769;51.624;5.886;2023-01-23T15:24:41;32.75;;;20.63;;
62707;SDS011;48769;51.624;5.886;2023-01-23T15:29:50;31.70;;;19.80;;
62707;SDS011;48769;51.624;5.886;2023-01-23T15:32:19;31.42;;;20.05;;
62707;SDS011;48769;51.624;5.886;2023-01-23T15:34:50;27.85;;;18.83;;
62707;SDS011;48769;51.624;5.886;2023-01-23T15:37:23;32.95;;;19.35;;
62707;SDS011;48769;51.624;5.886;2023-01-23T15:39:52;30.35;;;19.10;;
62707;SDS011;48769;51.624;5.886;2023-01-23T15:42:22;27.27;;;18.65;;
62707;SDS011;48769;51.624;5.886;2023-01-23T15:44:50;27.35;;;17.45;;
62707;SDS011;48769;51.624;5.886;2023-01-23T15:47:16;26.05;;;17.38;;
62707;SDS011;48769;51.624;5.886;2023-01-23T15:49:41;26.83;;;18.10;;
62707;SDS011;48769;51.624;5.886;2023-01-23T15:52:17;26.67;;;17.17;;
62707;SDS011;48769;51.624;5.886;2023-01-23T15:54:46;29.88;;;19.95;;
62707;SDS011;48769;51.624;5.886;2023-01-23T15:57:17;30.35;;;19.33;;
62707;SDS011;48769;51.624;5.886;2023-01-23T15:59:42;27.70;;;17.52;;
62707;SDS011;48769;51.624;5.886;2023-01-23T16:02:20;28.00;;;18.48;;
62707;SDS011;48769;51.624;5.886;2023-01-23T16:04:47;25.63;;;17.00;;
62707;SDS011;48769;51.624;5.886;2023-01-23T16:07:32;29.20;;;18.23;;
62707;SDS011;48769;51.624;5.886;2023-01-23T16:09:59;25.92;;;17.08;;
62707;SDS011;48769;51.624;5.886;2023-01-23T16:12:27;31.27;;;18.02;;
62707;SDS011;48769;51.624;5.886;2023-01-23T16:14:54;27.33;;;18.25;;
62707;SDS011;48769;51.624;5.886;2023-01-23T16:17:20;29.45;;;18.45;;
62707;SDS011;48769;51.624;5.886;2023-01-23T16:19:45;27.80;;;17.15;;
62707;SDS011;48769;51.624;5.886;2023-01-23T16:22:12;27.83;;;19.20;;
62707;SDS011;48769;51.624;5.886;2023-01-23T16:24:42;27.00;;;17.67;;
62707;SDS011;48769;51.624;5.886;2023-01-23T16:27:10;22.45;;;15.32;;
62707;SDS011;48769;51.624;5.886;2023-01-23T16:29:41;26.80;;;17.77;;